createdAt,value
2018-06-23T00:00:24.664Z,61.30
2018-06-23T00:01:31.642Z,61.35
2018-06-23T00:02:38.442Z,61.32
2018-06-23T00:03:45.333Z,61.31
2018-06-23T00:04:52.234Z,61.31
2018-06-23T00:05:59.094Z,61.37
2018-06-23T00:07:05.959Z,61.35
2018-06-23T00:08:13.170Z,61.46
2018-06-23T00:09:19.586Z,61.41
2018-06-23T00:10:26.495Z,61.42
2018-06-23T00:11:33.352Z,61.52
2018-06-23T00:12:40.215Z,61.59
2018-06-23T00:13:47.085Z,61.60
2018-06-23T00:14:53.950Z,61.65
2018-06-23T00:16:00.785Z,61.70
2018-06-23T00:17:07.663Z,61.71
2018-06-23T00:18:14.491Z,61.56
2018-06-23T00:19:21.445Z,61.61
2018-06-23T00:20:28.268Z,61.65
2018-06-23T00:21:35.119Z,61.54
2018-06-23T00:22:41.933Z,61.58
2018-06-23T00:23:48.743Z,61.66
2018-06-23T00:24:55.595Z,61.70
2018-06-23T00:26:02.457Z,61.65
2018-06-23T00:27:09.452Z,61.64
2018-06-23T00:28:16.355Z,61.53
2018-06-23T00:29:23.236Z,61.52
2018-06-23T00:30:30.152Z,61.55
2018-06-23T00:31:37.006Z,61.54
2018-06-23T00:32:43.839Z,61.62
2018-06-23T00:33:50.805Z,61.70
2018-06-23T00:34:57.682Z,61.70
2018-06-23T00:36:04.503Z,61.68
2018-06-23T00:37:11.319Z,61.69
2018-06-23T00:38:18.158Z,61.71
2018-06-23T00:39:24.981Z,61.69
2018-06-23T00:40:32.094Z,61.79
2018-06-23T00:41:38.907Z,61.83
2018-06-23T00:42:45.782Z,61.72
2018-06-23T00:43:52.600Z,61.75
2018-06-23T00:44:59.503Z,61.80
2018-06-23T00:46:06.391Z,61.80
2018-06-23T00:47:13.200Z,61.65
2018-06-23T00:48:20.069Z,61.65
2018-06-23T00:49:26.940Z,61.70
2018-06-23T00:50:33.956Z,61.73
2018-06-23T00:51:40.956Z,61.72
2018-06-23T00:52:47.772Z,61.75
2018-06-23T00:53:54.567Z,61.78
2018-06-23T00:55:01.556Z,61.83
2018-06-23T00:56:08.451Z,61.83
2018-06-23T00:57:15.223Z,61.85
2018-06-23T00:58:22.101Z,61.82
2018-06-23T00:59:28.967Z,61.83
2018-06-23T01:00:35.839Z,61.92
2018-06-23T01:01:42.700Z,62.07
2018-06-23T01:02:49.506Z,62.11
2018-06-23T01:03:56.376Z,62.11
2018-06-23T01:05:03.200Z,62.11
2018-06-23T01:06:10.070Z,62.02
2018-06-23T01:07:16.883Z,62.00
2018-06-23T01:08:23.971Z,62.11
2018-06-23T01:09:30.770Z,62.13
2018-06-23T01:10:37.739Z,62.13
2018-06-23T01:11:44.519Z,62.12
2018-06-23T01:12:51.384Z,62.03
2018-06-23T01:13:58.216Z,61.44
2018-06-23T01:15:05.127Z,62.04
2018-06-23T01:16:11.975Z,62.02
2018-06-23T01:17:18.883Z,62.09
2018-06-23T01:18:25.742Z,62.06
2018-06-23T01:19:32.845Z,61.98
2018-06-23T01:20:39.263Z,61.96
2018-06-23T01:21:46.099Z,61.92
2018-06-23T01:22:52.933Z,61.84
2018-06-23T01:23:59.760Z,61.77
2018-06-23T01:25:06.651Z,61.85
2018-06-23T01:26:15.540Z,61.94
2018-06-23T01:27:20.371Z,62.00
2018-06-23T01:28:27.175Z,62.14
2018-06-23T01:29:33.959Z,62.16
2018-06-23T01:30:40.751Z,62.25
2018-06-23T01:31:47.536Z,62.29
2018-06-23T01:32:54.331Z,62.30
2018-06-23T01:34:01.157Z,62.32
2018-06-23T01:35:07.992Z,62.32
2018-06-23T01:36:15.212Z,62.33
2018-06-23T01:37:21.519Z,62.34
2018-06-23T01:38:28.315Z,62.34
2018-06-23T01:39:35.147Z,62.39
2018-06-23T01:40:41.985Z,62.44
2018-06-23T01:41:49.219Z,62.53
2018-06-23T01:42:55.997Z,62.64
2018-06-23T01:44:02.812Z,62.79
2018-06-23T01:45:09.515Z,62.81
2018-06-23T01:46:16.373Z,62.79
2018-06-23T01:47:23.190Z,62.84
2018-06-23T01:48:29.971Z,62.93
2018-06-23T01:49:36.766Z,62.99
2018-06-23T01:50:43.972Z,63.00
2018-06-23T01:51:50.296Z,63.09
2018-06-23T01:52:57.096Z,63.21
2018-06-23T01:54:03.883Z,63.29
2018-06-23T01:55:10.839Z,63.21
2018-06-23T01:56:17.687Z,63.14
2018-06-23T01:57:24.475Z,63.08
2018-06-23T01:58:31.388Z,63.09
2018-06-23T01:59:38.197Z,63.08
2018-06-23T02:00:44.997Z,63.01
2018-06-23T02:01:51.803Z,63.06
2018-06-23T02:02:58.720Z,63.13
2018-06-23T02:04:05.543Z,63.12
2018-06-23T02:05:12.418Z,63.15
2018-06-23T02:06:19.243Z,63.15
2018-06-23T02:07:26.155Z,63.12
2018-06-23T02:08:32.984Z,63.06
2018-06-23T02:09:39.836Z,63.06
2018-06-23T02:10:46.651Z,63.12
2018-06-23T02:11:53.740Z,63.14
2018-06-23T02:13:00.592Z,63.19
2018-06-23T02:14:07.389Z,63.22
2018-06-23T02:15:14.205Z,63.27
2018-06-23T02:16:21.007Z,63.39
2018-06-23T02:17:27.924Z,63.45
2018-06-23T02:18:35.269Z,63.53
2018-06-23T02:19:42.063Z,63.55
2018-06-23T02:20:48.983Z,63.57
2018-06-23T02:21:55.763Z,63.53
2018-06-23T02:23:02.778Z,63.49
2018-06-23T02:24:09.744Z,63.54
2018-06-23T02:25:16.761Z,63.58
2018-06-23T02:26:23.746Z,63.60
2018-06-23T02:27:30.621Z,63.61
2018-06-23T02:28:37.408Z,63.72
2018-06-23T02:29:44.227Z,63.79
2018-06-23T02:30:51.109Z,63.77
2018-06-23T02:31:58.101Z,63.76
2018-06-23T02:33:05.011Z,63.76
2018-06-23T02:35:15.838Z,63.78
2018-06-23T02:36:22.559Z,63.80
2018-06-23T02:37:29.379Z,63.88
2018-06-23T02:38:36.211Z,63.93
2018-06-23T02:39:43.033Z,63.98
2018-06-23T02:40:49.855Z,64.02
2018-06-23T02:41:56.700Z,64.13
2018-06-23T02:43:03.592Z,64.24
2018-06-23T02:44:10.447Z,64.29
2018-06-23T02:45:17.596Z,64.36
2018-06-23T02:46:24.483Z,64.66
2018-06-23T02:47:31.476Z,64.55
2018-06-23T02:48:38.347Z,64.58
2018-06-23T02:49:45.223Z,64.57
2018-06-23T02:50:52.140Z,64.61
2018-06-23T02:51:59.179Z,64.65
2018-06-23T02:53:06.023Z,64.64
2018-06-23T02:54:12.804Z,64.74
2018-06-23T02:55:19.592Z,64.76
2018-06-23T02:56:26.379Z,64.84
2018-06-23T02:57:33.154Z,64.86
2018-06-23T02:58:39.950Z,64.91
2018-06-23T02:59:46.747Z,64.99
2018-06-23T03:00:53.577Z,65.12
2018-06-23T03:02:00.403Z,65.21
2018-06-23T03:03:07.227Z,65.28
2018-06-23T03:04:14.023Z,65.37
2018-06-23T03:05:21.035Z,65.42
2018-06-23T03:06:27.871Z,65.52
2018-06-23T03:07:34.738Z,65.61
2018-06-23T03:08:41.611Z,65.66
2018-06-23T03:09:48.452Z,65.67
2018-06-23T03:10:55.241Z,65.69
2018-06-23T03:12:02.123Z,65.71
2018-06-23T03:13:08.963Z,65.80
2018-06-23T03:14:15.792Z,65.87
2018-06-23T03:15:22.676Z,65.92
2018-06-23T03:16:29.520Z,65.92
2018-06-23T03:17:36.304Z,66.01
2018-06-23T03:18:43.083Z,66.15
2018-06-23T03:19:49.910Z,66.26
2018-06-23T03:20:56.652Z,66.35
2018-06-23T03:22:03.497Z,66.43
2018-06-23T03:23:10.333Z,66.50
2018-06-23T03:24:17.135Z,66.58
2018-06-23T03:25:24.067Z,66.64
2018-06-23T03:26:30.879Z,66.72
2018-06-23T03:27:37.763Z,66.75
2018-06-23T03:28:44.620Z,66.86
2018-06-23T03:29:51.442Z,66.92
2018-06-23T03:30:58.218Z,66.95
2018-06-23T03:32:05.012Z,67.01
2018-06-23T03:33:12.083Z,67.04
2018-06-23T03:34:18.889Z,67.08
2018-06-23T03:35:25.655Z,67.19
2018-06-23T03:36:32.451Z,67.27
2018-06-23T03:37:39.344Z,67.40
2018-06-23T03:38:46.235Z,67.46
2018-06-23T03:39:53.083Z,67.53
2018-06-23T03:40:59.931Z,67.55
2018-06-23T03:42:06.758Z,67.61
2018-06-23T03:43:13.551Z,67.67
2018-06-23T03:44:20.347Z,67.74
2018-06-23T03:45:27.155Z,67.83
2018-06-23T03:46:34.068Z,67.90
2018-06-23T03:47:40.952Z,67.98
2018-06-23T03:48:47.837Z,67.97
2018-06-23T03:49:54.640Z,68.01
2018-06-23T03:51:01.516Z,68.01
2018-06-23T03:52:08.513Z,68.04
2018-06-23T03:53:15.611Z,68.08
2018-06-23T03:54:22.472Z,68.16
2018-06-23T03:55:29.358Z,68.27
2018-06-23T03:56:36.195Z,68.34
2018-06-23T03:57:43.062Z,68.37
2018-06-23T03:58:49.942Z,68.36
2018-06-23T03:59:56.915Z,68.35
2018-06-23T04:01:03.727Z,68.39
2018-06-23T04:02:10.832Z,68.43
2018-06-23T04:03:17.671Z,68.43
2018-06-23T04:04:24.527Z,68.50
2018-06-23T04:05:31.331Z,68.60
2018-06-23T04:06:38.150Z,68.68
2018-06-23T04:07:44.935Z,68.72
2018-06-23T04:08:51.747Z,68.75
2018-06-23T04:09:58.638Z,68.69
2018-06-23T04:11:05.684Z,68.64
2018-06-23T04:12:12.501Z,68.69
2018-06-23T04:13:19.332Z,68.82
2018-06-23T04:14:26.111Z,68.88
2018-06-23T04:15:32.891Z,68.86
2018-06-23T04:16:39.687Z,68.94
2018-06-23T04:17:46.468Z,69.00
2018-06-23T04:18:53.289Z,69.01
2018-06-23T04:20:00.306Z,68.99
2018-06-23T04:21:07.263Z,69.01
2018-06-23T04:22:14.327Z,69.10
2018-06-23T04:23:21.121Z,69.13
2018-06-23T04:24:27.957Z,69.12
2018-06-23T04:25:34.783Z,69.10
2018-06-23T04:26:41.563Z,69.07
2018-06-23T04:27:48.474Z,69.09
2018-06-23T04:28:55.284Z,69.21
2018-06-23T04:30:02.331Z,69.28
2018-06-23T04:31:09.168Z,69.28
2018-06-23T04:32:16.023Z,69.35
2018-06-23T04:33:23.032Z,69.34
2018-06-23T04:34:29.848Z,69.40
2018-06-23T04:35:36.639Z,69.50
2018-06-23T04:36:43.523Z,69.53
2018-06-23T04:37:50.355Z,69.51
2018-06-23T04:38:57.164Z,69.47
2018-06-23T04:40:03.964Z,69.52
2018-06-23T04:41:10.790Z,69.65
2018-06-23T04:42:17.766Z,69.69
2018-06-23T04:43:24.638Z,69.64
2018-06-23T04:44:31.460Z,69.66
2018-06-23T04:45:38.433Z,69.75
2018-06-23T04:46:45.308Z,69.79
2018-06-23T04:47:52.170Z,69.84
2018-06-23T04:48:59.019Z,69.88
2018-06-23T04:50:05.916Z,69.93
2018-06-23T04:51:12.907Z,69.94
2018-06-23T04:52:19.773Z,70.01
2018-06-23T04:53:26.656Z,70.06
2018-06-23T04:54:33.548Z,70.14
2018-06-23T04:55:40.482Z,70.19
2018-06-23T04:56:47.751Z,70.23
2018-06-23T04:57:54.085Z,70.34
2018-06-23T04:59:00.916Z,70.45
2018-06-23T05:00:07.944Z,70.52
2018-06-23T05:01:14.836Z,70.54
2018-06-23T05:02:21.717Z,70.59
2018-06-23T05:03:28.585Z,70.71
2018-06-23T05:04:35.404Z,70.80
2018-06-23T05:05:42.298Z,70.77
2018-06-23T05:06:49.183Z,70.77
2018-06-23T05:07:56.003Z,70.87
2018-06-23T05:09:02.903Z,70.97
2018-06-23T05:10:09.630Z,71.06
2018-06-23T05:11:16.394Z,71.07
2018-06-23T05:12:23.243Z,71.16
2018-06-23T05:13:30.037Z,71.29
2018-06-23T05:14:36.878Z,71.34
2018-06-23T05:15:43.716Z,71.45
2018-06-23T05:16:50.575Z,71.60
2018-06-23T05:17:57.422Z,71.75
2018-06-23T05:19:04.206Z,71.81
2018-06-23T05:20:11.675Z,71.74
2018-06-23T05:21:17.943Z,71.62
2018-06-23T05:22:24.813Z,71.64
2018-06-23T05:23:32.093Z,71.60
2018-06-23T05:24:38.553Z,71.55
2018-06-23T05:25:45.584Z,71.49
2018-06-23T05:26:52.476Z,71.53
2018-06-23T05:27:59.296Z,71.32
2018-06-23T05:29:06.093Z,71.20
2018-06-23T05:30:13.138Z,71.27
2018-06-23T05:31:19.914Z,71.33
2018-06-23T05:32:26.724Z,71.23
2018-06-23T05:33:33.616Z,71.19
2018-06-23T05:34:40.831Z,71.27
2018-06-23T05:35:47.623Z,71.28
2018-06-23T05:36:54.394Z,71.19
2018-06-23T05:38:01.243Z,71.07
2018-06-23T05:39:09.483Z,71.04
2018-06-23T05:40:19.244Z,70.89
2018-06-23T05:41:22.692Z,70.85
2018-06-23T05:42:29.051Z,70.68
2018-06-23T05:43:35.918Z,70.75
2018-06-23T05:44:43.250Z,70.70
2018-06-23T05:45:54.703Z,70.66
2018-06-23T05:46:57.127Z,70.62
2018-06-23T05:48:04.022Z,70.54
2018-06-23T05:49:11.439Z,70.59
2018-06-23T05:50:17.797Z,70.46
2018-06-23T05:51:25.013Z,70.42
2018-06-23T05:52:31.926Z,70.35
2018-06-23T05:53:38.783Z,70.25
2018-06-23T05:54:45.593Z,70.29
2018-06-23T05:55:52.447Z,70.24
2018-06-23T05:56:59.483Z,70.17
2018-06-23T05:58:06.255Z,70.11
2018-06-23T05:59:13.179Z,70.16
2018-06-23T06:00:19.922Z,70.13
2018-06-23T06:01:26.746Z,70.11
2018-06-23T06:02:33.541Z,70.12
2018-06-23T06:03:40.400Z,70.13
2018-06-23T06:04:47.298Z,70.05
2018-06-23T06:05:54.191Z,69.94
2018-06-23T06:07:01.097Z,69.92
2018-06-23T06:08:07.899Z,69.91
2018-06-23T06:09:15.096Z,69.87
2018-06-23T06:10:21.839Z,69.84
2018-06-23T06:11:29.553Z,69.78
2018-06-23T06:12:35.575Z,69.60
2018-06-23T06:13:42.495Z,69.63
2018-06-23T06:14:49.580Z,69.66
2018-06-23T06:15:56.327Z,69.75
2018-06-23T06:17:03.099Z,69.65
2018-06-23T06:18:09.838Z,69.48
2018-06-23T06:19:16.606Z,69.46
2018-06-23T06:20:23.668Z,69.39
2018-06-23T06:21:30.515Z,69.39
2018-06-23T06:22:37.266Z,69.34
2018-06-23T06:23:44.204Z,69.27
2018-06-23T06:24:50.888Z,69.14
2018-06-23T06:25:57.698Z,69.10
2018-06-23T06:27:04.451Z,69.06
2018-06-23T06:28:11.194Z,69.13
2018-06-23T06:29:18.079Z,68.98
2018-06-23T06:30:24.786Z,69.03
2018-06-23T06:31:31.576Z,68.89
2018-06-23T06:32:38.418Z,68.84
2018-06-23T06:33:45.268Z,68.79
2018-06-23T06:34:52.252Z,68.80
2018-06-23T06:35:59.086Z,68.83
2018-06-23T06:37:05.965Z,68.86
2018-06-23T06:38:12.930Z,69.04
2018-06-23T06:39:19.754Z,68.84
2018-06-23T06:40:26.530Z,68.87
2018-06-23T06:41:33.327Z,69.03
2018-06-23T06:42:42.583Z,69.06
2018-06-23T06:43:46.985Z,68.84
2018-06-23T06:44:54.000Z,68.90
2018-06-23T06:46:01.085Z,69.08
2018-06-23T06:47:07.910Z,68.94
2018-06-23T06:48:15.146Z,68.87
2018-06-23T06:49:22.000Z,68.92
2018-06-23T06:50:28.883Z,68.88
2018-06-23T06:51:35.764Z,68.94
2018-06-23T06:52:46.949Z,68.87
2018-06-23T06:53:49.901Z,68.84
2018-06-23T06:54:56.344Z,68.93
2018-06-23T06:56:03.563Z,69.00
2018-06-23T06:57:09.965Z,68.98
2018-06-23T06:58:16.635Z,69.00
2018-06-23T06:59:24.016Z,69.10
2018-06-23T07:00:30.454Z,69.03
2018-06-23T07:01:37.347Z,69.06
2018-06-23T07:02:44.093Z,68.97
2018-06-23T07:03:50.958Z,69.07
2018-06-23T07:04:57.852Z,69.11
2018-06-23T07:06:04.697Z,69.04
2018-06-23T07:07:11.839Z,69.09
2018-06-23T07:08:18.186Z,69.05
2018-06-23T07:09:25.055Z,69.01
2018-06-23T07:10:31.824Z,68.94
2018-06-23T07:11:38.607Z,68.90
2018-06-23T07:12:45.702Z,68.96
2018-06-23T07:13:52.535Z,68.75
2018-06-23T07:14:59.270Z,68.68
2018-06-23T07:16:06.155Z,68.68
2018-06-23T07:17:14.106Z,68.50
2018-06-23T07:18:20.222Z,68.46
2018-06-23T07:19:27.158Z,68.43
2018-06-23T07:20:34.024Z,68.35
2018-06-23T07:21:40.909Z,68.31
2018-06-23T07:22:47.806Z,68.29
2018-06-23T07:23:54.754Z,68.21
2018-06-23T07:25:01.494Z,68.16
2018-06-23T07:26:08.414Z,68.11
2018-06-23T07:27:15.292Z,68.02
2018-06-23T07:28:22.094Z,67.74
2018-06-23T07:29:28.863Z,67.92
2018-06-23T07:30:36.612Z,67.86
2018-06-23T07:31:42.462Z,67.81
2018-06-23T07:32:49.219Z,67.86
2018-06-23T07:33:56.124Z,67.80
2018-06-23T07:35:03.037Z,67.78
2018-06-23T07:36:09.860Z,67.62
2018-06-23T07:37:19.050Z,67.69
2018-06-23T07:38:23.488Z,67.68
2018-06-23T07:39:30.435Z,67.60
2018-06-23T07:40:37.285Z,67.71
2018-06-23T07:41:44.066Z,67.76
2018-06-23T07:42:50.963Z,67.55
2018-06-23T07:43:57.918Z,67.28
2018-06-23T07:45:04.717Z,67.03
2018-06-23T07:46:11.575Z,66.85
2018-06-23T07:47:18.465Z,66.73
2018-06-23T07:48:25.302Z,66.68
2018-06-23T07:49:32.090Z,66.74
2018-06-23T07:50:38.940Z,66.86
2018-06-23T07:51:45.887Z,66.94
2018-06-23T07:52:52.908Z,66.71
2018-06-23T07:53:59.730Z,66.44
2018-06-23T07:55:06.592Z,66.38
2018-06-23T07:56:13.689Z,66.22
2018-06-23T07:57:20.453Z,66.21
2018-06-23T07:58:27.412Z,66.20
2018-06-23T07:59:34.097Z,66.15
2018-06-23T08:00:40.907Z,65.86
2018-06-23T08:01:47.797Z,65.81
2018-06-23T08:02:54.549Z,65.73
2018-06-23T08:04:01.340Z,65.56
2018-06-23T08:05:08.224Z,65.33
2018-06-23T08:06:15.082Z,65.11
2018-06-23T08:07:22.039Z,64.87
2018-06-23T08:08:28.916Z,64.99
2018-06-23T08:09:35.726Z,65.08
2018-06-23T08:10:42.487Z,65.12
2018-06-23T08:11:49.446Z,65.04
2018-06-23T08:12:56.418Z,64.83
2018-06-23T08:14:03.346Z,64.73
2018-06-23T08:15:10.300Z,64.62
2018-06-23T08:16:17.090Z,64.52
2018-06-23T08:17:23.904Z,64.54
2018-06-23T08:18:30.743Z,64.44
2018-06-23T08:19:41.515Z,64.37
2018-06-23T08:20:44.762Z,64.35
2018-06-23T08:21:51.747Z,64.05
2018-06-23T08:22:58.234Z,63.63
2018-06-23T08:24:05.098Z,63.73
2018-06-23T08:25:12.084Z,63.78
2018-06-23T08:26:20.107Z,63.49
2018-06-23T08:27:25.955Z,63.29
2018-06-23T08:28:32.835Z,63.41
2018-06-23T08:29:39.810Z,63.40
2018-06-23T08:30:46.627Z,63.01
2018-06-23T08:31:53.484Z,62.73
2018-06-23T08:33:00.303Z,62.53
2018-06-23T08:34:07.132Z,62.62
2018-06-23T08:35:13.930Z,62.72
2018-06-23T08:36:20.754Z,62.69
2018-06-23T08:37:27.669Z,62.76
2018-06-23T08:38:34.880Z,62.80
2018-06-23T08:39:41.373Z,62.64
2018-06-23T08:40:48.191Z,62.81
2018-06-23T08:41:54.922Z,62.80
2018-06-23T08:43:01.695Z,62.80
2018-06-23T08:44:08.483Z,62.70
2018-06-23T08:45:15.298Z,62.55
2018-06-23T08:46:22.077Z,63.00
2018-06-23T08:47:28.865Z,62.88
2018-06-23T08:48:35.650Z,62.86
2018-06-23T08:49:42.428Z,63.09
2018-06-23T08:50:49.244Z,63.32
2018-06-23T08:51:56.079Z,63.18
2018-06-23T08:53:02.985Z,63.30
2018-06-23T08:54:09.912Z,63.14
2018-06-23T08:55:16.760Z,63.07
2018-06-23T08:56:23.671Z,62.94
2018-06-23T08:57:30.515Z,62.78
2018-06-23T08:58:38.324Z,62.90
2018-06-23T08:59:44.191Z,62.79
2018-06-23T09:00:50.971Z,62.84
2018-06-23T09:01:57.782Z,62.79
2018-06-23T09:03:04.591Z,62.67
2018-06-23T09:04:11.577Z,62.84
2018-06-23T09:05:18.545Z,62.98
2018-06-23T09:06:25.395Z,63.07
2018-06-23T09:07:32.225Z,62.85
2018-06-23T09:08:39.121Z,62.69
2018-06-23T09:09:49.991Z,62.62
2018-06-23T09:10:53.147Z,62.55
2018-06-23T09:12:00.201Z,62.46
2018-06-23T09:13:07.398Z,62.74
2018-06-23T09:14:14.399Z,62.77
2018-06-23T09:15:21.360Z,62.76
2018-06-23T09:16:28.207Z,62.50
2018-06-23T09:17:35.072Z,62.52
2018-06-23T09:18:41.963Z,62.78
2018-06-23T09:19:48.758Z,62.85
2018-06-23T09:20:55.593Z,62.75
2018-06-23T09:22:02.490Z,62.64
2018-06-23T09:23:09.264Z,62.38
2018-06-23T09:24:16.111Z,62.35
2018-06-23T09:25:23.389Z,62.46
2018-06-23T09:26:29.759Z,62.47
2018-06-23T09:27:36.604Z,62.69
2018-06-23T09:28:43.485Z,62.86
2018-06-23T09:29:50.319Z,62.84
2018-06-23T09:30:57.586Z,62.67
2018-06-23T09:32:04.395Z,62.79
2018-06-23T09:33:12.116Z,62.90
2018-06-23T09:34:18.043Z,62.87
2018-06-23T09:35:25.179Z,62.62
2018-06-23T09:36:31.972Z,62.53
2018-06-23T09:37:38.740Z,62.73
2018-06-23T09:38:45.550Z,62.98
2018-06-23T09:39:52.410Z,62.93
2018-06-23T09:40:59.565Z,62.93
2018-06-23T09:42:06.266Z,62.92
2018-06-23T09:43:13.027Z,62.83
2018-06-23T09:44:19.856Z,62.83
2018-06-23T09:45:26.610Z,62.93
2018-06-23T09:46:33.369Z,63.02
2018-06-23T09:47:40.314Z,63.11
2018-06-23T09:48:47.110Z,63.18
2018-06-23T09:49:53.826Z,63.23
2018-06-23T09:51:00.663Z,63.22
2018-06-23T09:52:07.475Z,63.26
2018-06-23T09:53:14.327Z,63.25
2018-06-23T09:54:21.110Z,63.20
2018-06-23T09:55:27.877Z,63.28
2018-06-23T09:56:34.654Z,63.38
2018-06-23T09:57:41.565Z,63.37
2018-06-23T09:58:48.427Z,63.40
2018-06-23T09:59:55.298Z,63.28
2018-06-23T10:01:02.124Z,63.44
2018-06-23T10:02:08.951Z,63.29
2018-06-23T10:03:15.718Z,63.29
2018-06-23T10:04:22.542Z,63.35
2018-06-23T10:05:29.322Z,63.44
2018-06-23T10:06:36.198Z,63.37
2018-06-23T10:07:42.986Z,63.34
2018-06-23T10:08:49.770Z,63.37
2018-06-23T10:09:56.542Z,62.91
2018-06-23T10:11:03.310Z,63.10
2018-06-23T10:12:10.131Z,63.38
2018-06-23T10:13:16.906Z,63.02
2018-06-23T10:14:23.638Z,63.24
2018-06-23T10:15:30.518Z,63.36
2018-06-23T10:16:37.322Z,63.28
2018-06-23T10:17:44.224Z,63.08
2018-06-23T10:18:51.091Z,63.00
2018-06-23T10:19:57.770Z,62.70
2018-06-23T10:21:04.812Z,62.51
2018-06-23T10:22:11.774Z,62.26
2018-06-23T10:23:18.595Z,62.47
2018-06-23T10:24:25.340Z,62.38
2018-06-23T10:25:32.212Z,62.48
2018-06-23T10:26:39.020Z,62.64
2018-06-23T10:27:45.970Z,62.52
2018-06-23T10:28:53.182Z,62.42
2018-06-23T10:29:59.627Z,62.37
2018-06-23T10:31:06.834Z,62.01
2018-06-23T10:32:13.797Z,61.71
2018-06-23T10:33:20.828Z,61.60
2018-06-23T10:34:27.351Z,61.79
2018-06-23T10:35:34.415Z,61.90
2018-06-23T10:36:41.335Z,61.89
2018-06-23T10:37:48.091Z,61.59
2018-06-23T10:38:56.367Z,61.28
2018-06-23T10:40:02.160Z,61.33
2018-06-23T10:41:09.049Z,61.18
2018-06-23T10:42:15.964Z,60.97
2018-06-23T10:43:22.769Z,60.95
2018-06-23T10:44:29.614Z,60.87
2018-06-23T10:45:36.730Z,60.92
2018-06-23T10:46:43.607Z,60.77
2018-06-23T10:47:50.465Z,60.80
2018-06-23T10:48:57.334Z,60.66
2018-06-23T10:50:04.148Z,60.71
2018-06-23T10:51:10.981Z,60.90
2018-06-23T10:52:17.813Z,60.77
2018-06-23T10:53:24.590Z,60.61
2018-06-23T10:54:31.360Z,60.57
2018-06-23T10:55:38.173Z,60.20
2018-06-23T10:56:45.006Z,60.06
2018-06-23T10:57:51.821Z,60.38
2018-06-23T10:58:58.526Z,60.12
2018-06-23T11:00:05.246Z,60.02
2018-06-23T11:01:12.023Z,60.12
2018-06-23T11:02:18.883Z,60.03
2018-06-23T11:03:25.850Z,60.24
2018-06-23T11:04:32.645Z,60.28
2018-06-23T11:05:39.422Z,60.46
2018-06-23T11:06:46.220Z,60.54
2018-06-23T11:07:52.997Z,60.84
2018-06-23T11:08:59.802Z,60.56
2018-06-23T11:10:06.639Z,60.18
2018-06-23T11:11:13.475Z,60.07
2018-06-23T11:12:20.387Z,60.06
2018-06-23T11:13:27.178Z,60.01
2018-06-23T11:14:33.952Z,59.78
2018-06-23T11:15:40.754Z,59.65
2018-06-23T11:16:47.666Z,59.61
2018-06-23T11:17:54.414Z,59.56
2018-06-23T11:19:01.154Z,59.79
2018-06-23T11:20:07.994Z,59.52
2018-06-23T11:21:14.888Z,59.57
2018-06-23T11:22:21.686Z,59.50
2018-06-23T11:23:28.486Z,59.58
2018-06-23T11:24:35.456Z,59.32
2018-06-23T11:25:42.230Z,59.42
2018-06-23T11:26:49.221Z,59.40
2018-06-23T11:27:56.003Z,59.32
2018-06-23T11:29:02.778Z,59.17
2018-06-23T11:30:09.587Z,59.04
2018-06-23T11:31:16.310Z,59.35
2018-06-23T11:32:23.311Z,59.06
2018-06-23T11:33:30.083Z,59.08
2018-06-23T11:34:36.818Z,59.24
2018-06-23T11:35:43.589Z,59.25
2018-06-23T11:36:50.510Z,59.40
2018-06-23T11:37:57.327Z,59.65
2018-06-23T11:39:04.082Z,59.52
2018-06-23T11:40:11.198Z,59.53
2018-06-23T11:41:18.026Z,59.66
2018-06-23T11:42:24.742Z,59.64
2018-06-23T11:43:31.522Z,59.66
2018-06-23T11:44:38.290Z,59.78
2018-06-23T11:45:45.026Z,59.68
2018-06-23T11:46:51.890Z,59.71
2018-06-23T11:47:58.662Z,59.90
2018-06-23T11:49:05.383Z,59.82
2018-06-23T11:50:12.180Z,60.04
2018-06-23T11:51:18.966Z,60.17
2018-06-23T11:52:25.838Z,60.36
2018-06-23T11:53:32.592Z,60.34
2018-06-23T11:54:39.416Z,60.28
2018-06-23T11:55:46.252Z,60.40
2018-06-23T11:56:54.854Z,60.39
2018-06-23T11:57:59.794Z,60.65
2018-06-23T11:59:06.612Z,60.57
2018-06-23T12:00:13.858Z,60.46
2018-06-23T12:01:20.174Z,60.65
2018-06-23T12:02:26.972Z,60.73
2018-06-23T12:03:33.740Z,60.67
2018-06-23T12:04:40.659Z,60.62
2018-06-23T12:05:47.449Z,60.43
2018-06-23T12:06:54.546Z,60.43
2018-06-23T12:08:00.936Z,60.58
2018-06-23T12:09:07.831Z,60.63
2018-06-23T12:10:14.637Z,60.78
2018-06-23T12:11:21.401Z,60.56
2018-06-23T12:12:28.486Z,60.33
2018-06-23T12:13:38.328Z,60.43
2018-06-23T12:14:42.302Z,60.41
2018-06-23T12:15:49.067Z,60.30
2018-06-23T12:16:55.957Z,60.35
2018-06-23T12:18:02.750Z,60.33
2018-06-23T12:19:09.538Z,60.37
2018-06-23T12:20:16.294Z,60.46
2018-06-23T12:21:23.058Z,60.61
2018-06-23T12:22:29.906Z,60.38
2018-06-23T12:23:36.589Z,60.35
2018-06-23T12:24:43.373Z,60.11
2018-06-23T12:25:50.135Z,60.11
2018-06-23T12:26:56.947Z,60.14
2018-06-23T12:28:03.762Z,60.16
2018-06-23T12:29:10.685Z,60.28
2018-06-23T12:30:17.434Z,60.27
2018-06-23T12:31:24.263Z,60.30
2018-06-23T12:32:31.042Z,60.40
2018-06-23T12:33:37.890Z,60.47
2018-06-23T12:34:44.746Z,60.36
2018-06-23T12:35:51.415Z,60.36
2018-06-23T12:36:58.239Z,60.46
2018-06-23T12:38:05.095Z,60.62
2018-06-23T12:39:12.148Z,60.52
2018-06-23T12:40:19.028Z,60.58
2018-06-23T12:41:25.797Z,60.49
2018-06-23T12:42:32.691Z,60.36
2018-06-23T12:43:39.483Z,60.26
2018-06-23T12:44:46.384Z,60.40
2018-06-23T12:45:53.213Z,60.61
2018-06-23T12:47:00.056Z,60.54
2018-06-23T12:48:08.126Z,60.46
2018-06-23T12:49:13.721Z,60.36
2018-06-23T12:50:20.518Z,60.24
2018-06-23T12:51:27.281Z,60.21
2018-06-23T12:52:34.167Z,60.16
2018-06-23T12:53:41.921Z,60.21
2018-06-23T12:54:47.779Z,60.13
2018-06-23T12:55:54.668Z,60.04
2018-06-23T12:57:01.729Z,60.00
2018-06-23T12:58:08.385Z,60.03
2018-06-23T12:59:15.332Z,59.98
2018-06-23T13:00:22.365Z,60.01
2018-06-23T13:01:29.243Z,59.96
2018-06-23T13:02:36.150Z,59.92
2018-06-23T13:03:43.080Z,59.91
2018-06-23T13:04:50.239Z,59.85
2018-06-23T13:05:56.559Z,59.84
2018-06-23T13:07:03.525Z,59.70
2018-06-23T13:08:10.355Z,59.87
2018-06-23T13:09:17.234Z,59.83
2018-06-23T13:10:23.979Z,59.70
2018-06-23T13:11:32.167Z,59.81
2018-06-23T13:12:37.559Z,59.80
2018-06-23T13:13:44.374Z,59.69
2018-06-23T13:14:51.158Z,59.70
2018-06-23T13:15:59.044Z,60.00
2018-06-23T13:17:05.031Z,60.09
2018-06-23T13:18:11.896Z,59.82
2018-06-23T13:19:18.785Z,59.75
2018-06-23T13:20:25.658Z,59.54
2018-06-23T13:21:32.559Z,59.27
2018-06-23T13:22:39.231Z,59.20
2018-06-23T13:23:46.129Z,59.11
2018-06-23T13:24:53.071Z,59.31
2018-06-23T13:26:00.495Z,59.25
2018-06-23T13:27:08.094Z,59.18
2018-06-23T13:28:13.961Z,59.14
2018-06-23T13:29:26.103Z,59.33
2018-06-23T13:30:27.739Z,59.17
2018-06-23T13:31:34.654Z,59.32
2018-06-23T13:32:42.588Z,59.23
2018-06-23T13:33:48.683Z,59.30
2018-06-23T13:34:55.607Z,59.25
2018-06-23T13:36:02.266Z,59.33
2018-06-23T13:37:09.143Z,59.32
2018-06-23T13:38:16.166Z,59.22
2018-06-23T13:39:23.011Z,59.09
2018-06-23T13:40:30.039Z,59.23
2018-06-23T13:41:37.209Z,59.16
2018-06-23T13:42:43.651Z,59.11
2018-06-23T13:43:50.470Z,58.93
2018-06-23T13:44:57.411Z,58.79
2018-06-23T13:46:04.251Z,58.73
2018-06-23T13:47:12.298Z,58.57
2018-06-23T13:48:18.135Z,58.52
2018-06-23T13:49:25.012Z,58.46
2018-06-23T13:50:31.822Z,58.28
2018-06-23T13:51:38.790Z,58.30
2018-06-23T13:52:45.727Z,58.37
2018-06-23T13:53:52.563Z,58.18
2018-06-23T13:55:01.147Z,58.14
2018-06-23T13:56:06.458Z,57.82
2018-06-23T13:57:13.455Z,57.65
2018-06-23T13:58:20.347Z,57.69
2018-06-23T13:59:27.474Z,57.47
2018-06-23T14:00:34.427Z,57.42
2018-06-23T14:01:41.242Z,57.36
2018-06-23T14:02:48.126Z,56.93
2018-06-23T14:03:55.362Z,57.06
2018-06-23T14:05:01.820Z,57.10
2018-06-23T14:06:08.954Z,56.99
2018-06-23T14:07:15.894Z,56.85
2018-06-23T14:08:26.597Z,56.80
2018-06-23T14:09:31.023Z,56.69
2018-06-23T14:10:36.311Z,56.71
2018-06-23T14:11:43.223Z,56.71
2018-06-23T14:12:50.307Z,56.65
2018-06-23T14:13:57.405Z,56.67
2018-06-23T14:15:04.838Z,56.68
2018-06-23T14:16:11.276Z,56.74
2018-06-23T14:17:18.039Z,56.79
2018-06-23T14:18:25.135Z,56.62
2018-06-23T14:19:31.938Z,56.73
2018-06-23T14:20:38.672Z,56.58
2018-06-23T14:21:45.466Z,56.54